createdAt,value
2022-10-18T00:00:22.790Z,77.69
2022-10-18T00:02:50.407Z,77.71
2022-10-18T00:05:17.940Z,77.10
2022-10-18T00:07:45.257Z,74.72
2022-10-18T00:10:12.969Z,72.12
2022-10-18T00:12:40.582Z,72.60
2022-10-18T00:15:08.666Z,74.76
2022-10-18T00:17:37.460Z,78.55
2022-10-18T00:20:06.645Z,78.55
2022-10-18T00:22:35.348Z,79.16
2022-10-18T00:25:03.079Z,79.95
2022-10-18T00:27:30.906Z,79.72
2022-10-18T00:29:58.283Z,81.32
2022-10-18T00:32:26.125Z,81.78
2022-10-18T00:34:53.576Z,81.98
2022-10-18T00:37:20.921Z,82.20
2022-10-18T00:39:48.609Z,80.88
2022-10-18T00:42:21.366Z,80.81
2022-10-18T00:44:48.852Z,81.97
2022-10-18T00:47:18.017Z,82.87
2022-10-18T00:49:49.349Z,83.98
2022-10-18T00:52:28.960Z,85.71
2022-10-18T00:54:57.095Z,86.85
2022-10-18T00:57:25.465Z,87.50
2022-10-18T00:59:53.459Z,87.75
2022-10-18T01:02:21.727Z,87.52
2022-10-18T01:04:49.484Z,86.10
2022-10-18T01:07:26.134Z,84.01
2022-10-18T01:09:59.675Z,82.67
2022-10-18T01:13:05.041Z,80.50
2022-10-18T01:15:51.204Z,79.24
2022-10-18T01:18:34.878Z,77.94
2022-10-18T01:21:26.903Z,79.14
2022-10-18T01:24:18.553Z,78.94
2022-10-18T01:26:51.890Z,79.07
2022-10-18T01:29:38.066Z,78.71
2022-10-18T01:32:12.794Z,78.77
2022-10-18T01:34:42.425Z,78.65
2022-10-18T01:37:13.688Z,78.44
2022-10-18T01:39:44.497Z,77.87
2022-10-18T01:42:15.105Z,75.52
2022-10-18T01:44:44.258Z,75.83
2022-10-18T01:47:12.545Z,73.91
2022-10-18T01:49:39.999Z,74.04
2022-10-18T01:54:45.090Z,76.67
2022-10-18T01:57:19.838Z,77.29
2022-10-18T01:59:58.161Z,81.76
2022-10-18T02:02:57.771Z,78.02
2022-10-18T02:05:48.459Z,77.58
2022-10-18T02:08:39.208Z,77.13
2022-10-18T02:11:07.393Z,80.03
2022-10-18T02:13:40.746Z,78.80
2022-10-18T02:16:12.277Z,78.61
2022-10-18T02:18:48.553Z,76.17
2022-10-18T02:21:18.457Z,75.69
2022-10-18T02:23:46.296Z,76.23
2022-10-18T02:26:14.904Z,77.30
2022-10-18T02:28:42.922Z,75.32
2022-10-18T02:31:22.715Z,80.43
2022-10-18T02:33:57.524Z,81.27
2022-10-18T02:36:32.036Z,79.59
2022-10-18T02:39:04.276Z,77.85
2022-10-18T02:41:31.829Z,77.10
2022-10-18T02:43:59.528Z,75.90
2022-10-18T02:48:59.382Z,76.39
2022-10-18T02:51:26.992Z,76.01
2022-10-18T02:53:54.342Z,77.03
2022-10-18T02:56:21.692Z,75.45
2022-10-18T02:58:49.291Z,75.93
2022-10-18T03:01:16.688Z,74.21
2022-10-18T03:03:44.073Z,75.53
2022-10-18T03:06:11.741Z,73.65
2022-10-18T03:08:39.171Z,74.22
2022-10-18T03:11:06.798Z,74.57
2022-10-18T03:13:34.630Z,75.28
2022-10-18T03:16:02.127Z,75.84
2022-10-18T03:18:29.495Z,75.20
2022-10-18T03:20:57.096Z,76.53
2022-10-18T03:23:24.447Z,77.40
2022-10-18T03:25:51.776Z,78.75
2022-10-18T03:28:19.352Z,80.07
2022-10-18T03:30:46.698Z,83.31
2022-10-18T03:33:14.087Z,84.09
2022-10-18T03:35:41.667Z,86.04
2022-10-18T03:38:09.052Z,86.73
2022-10-18T03:40:36.401Z,85.88
2022-10-18T03:43:03.999Z,85.82
2022-10-18T03:45:31.737Z,81.17
2022-10-18T03:47:59.205Z,80.57
2022-10-18T03:50:26.849Z,80.02
2022-10-18T03:52:55.458Z,78.96
2022-10-18T03:55:22.832Z,79.14
2022-10-18T03:57:50.446Z,78.40
2022-10-18T04:00:17.806Z,79.53
2022-10-18T04:02:45.406Z,80.59
2022-10-18T04:05:14.121Z,82.49
2022-10-18T04:07:41.488Z,84.97
2022-10-18T04:10:09.320Z,83.70
2022-10-18T04:12:36.715Z,84.22
2022-10-18T04:15:04.436Z,84.76
2022-10-18T04:17:32.291Z,84.18
2022-10-18T04:19:59.797Z,84.23
2022-10-18T04:22:27.319Z,83.01
2022-10-18T04:24:56.817Z,85.64
2022-10-18T04:27:24.519Z,85.28
2022-10-18T04:29:51.847Z,87.01
2022-10-18T04:32:19.456Z,87.30
2022-10-18T04:34:46.815Z,86.25
2022-10-18T04:37:14.235Z,87.96
2022-10-18T04:39:49.767Z,85.13
2022-10-18T04:42:20.295Z,86.40
2022-10-18T04:44:47.906Z,86.50
2022-10-18T04:47:16.063Z,85.84
2022-10-18T04:49:43.597Z,84.54
2022-10-18T04:52:11.517Z,83.77
2022-10-18T04:54:38.884Z,80.05
2022-10-18T04:57:06.253Z,80.54
2022-10-18T04:59:33.871Z,80.67
2022-10-18T05:02:01.353Z,79.44
2022-10-18T05:04:28.730Z,79.39
2022-10-18T05:06:56.364Z,76.76
2022-10-18T05:09:24.889Z,76.63
2022-10-18T05:11:52.321Z,77.55
2022-10-18T05:14:19.977Z,73.43
2022-10-18T05:16:47.479Z,72.31
2022-10-18T05:19:14.853Z,72.30
2022-10-18T05:21:42.479Z,74.07
2022-10-18T05:24:11.767Z,73.28
2022-10-18T05:26:39.213Z,75.94
2022-10-18T05:29:06.979Z,77.54
2022-10-18T05:31:34.445Z,77.63
2022-10-18T05:34:02.008Z,79.72
2022-10-18T05:36:29.650Z,78.12
2022-10-18T05:39:00.886Z,79.47
2022-10-18T05:41:31.927Z,80.59
2022-10-18T05:44:03.921Z,82.21
2022-10-18T05:46:31.914Z,83.59
2022-10-18T05:48:59.282Z,84.83
2022-10-18T05:51:26.605Z,80.88
2022-10-18T05:53:54.818Z,77.98
2022-10-18T05:56:22.163Z,77.68
2022-10-18T05:58:51.009Z,77.14
2022-10-18T06:01:18.878Z,75.54
2022-10-18T06:03:46.966Z,74.95
2022-10-18T06:06:14.663Z,76.63
2022-10-18T06:08:43.000Z,76.72
2022-10-18T06:11:16.511Z,76.12
2022-10-18T06:13:48.721Z,76.48
2022-10-18T06:16:18.966Z,75.45
2022-10-18T06:18:51.243Z,74.85
2022-10-18T06:21:20.173Z,75.64
2022-10-18T06:23:56.187Z,77.02
2022-10-18T06:26:24.083Z,77.31
2022-10-18T06:28:51.548Z,75.23
2022-10-18T06:31:19.220Z,74.72
2022-10-18T06:33:47.103Z,74.69
2022-10-18T06:36:19.506Z,74.48
2022-10-18T06:38:47.210Z,74.17
2022-10-18T06:41:14.945Z,74.35
2022-10-18T06:43:42.302Z,73.73
2022-10-18T06:46:09.991Z,74.20
2022-10-18T06:48:39.034Z,73.97
2022-10-18T06:51:07.562Z,74.41
2022-10-18T06:53:43.815Z,74.00
2022-10-18T06:56:16.033Z,74.05
2022-10-18T06:58:43.743Z,73.38
2022-10-18T07:01:16.169Z,74.54
2022-10-18T07:03:44.913Z,74.87
2022-10-18T07:06:13.667Z,74.92
2022-10-18T07:08:41.503Z,75.18
2022-10-18T07:11:14.664Z,76.08
2022-10-18T07:13:42.076Z,75.11
2022-10-18T07:16:17.390Z,76.71
2022-10-18T07:18:51.123Z,77.26
2022-10-18T07:21:21.364Z,76.93
2022-10-18T07:23:49.458Z,76.27
2022-10-18T07:26:29.938Z,75.66
2022-10-18T07:29:05.609Z,75.90
2022-10-18T07:31:33.476Z,75.56
2022-10-18T07:34:01.160Z,75.20
2022-10-18T07:36:28.522Z,73.71
2022-10-18T07:38:56.202Z,73.36
2022-10-18T07:41:23.890Z,72.09
2022-10-18T07:43:52.669Z,71.46
2022-10-18T07:46:21.631Z,71.00
2022-10-18T07:48:49.360Z,70.28
2022-10-18T07:51:18.168Z,70.34
2022-10-18T07:53:45.647Z,69.02
2022-10-18T07:56:20.938Z,69.24
2022-10-18T07:58:53.542Z,67.75
2022-10-18T08:01:22.586Z,66.81
2022-10-18T08:03:50.866Z,66.93
2022-10-18T08:06:19.555Z,67.02
2022-10-18T08:08:48.100Z,65.70
2022-10-18T08:11:18.922Z,65.06
2022-10-18T08:13:46.342Z,64.71
2022-10-18T08:16:20.385Z,63.29
2022-10-18T08:18:48.239Z,63.48
2022-10-18T08:21:16.729Z,63.18
2022-10-18T08:23:44.605Z,62.11
2022-10-18T08:26:14.955Z,59.05
2022-10-18T08:28:49.063Z,58.33
2022-10-18T08:31:21.941Z,57.82
2022-10-18T08:33:49.301Z,56.12
2022-10-18T08:36:19.379Z,56.48
2022-10-18T08:38:47.092Z,57.22
2022-10-18T08:41:26.745Z,54.79
2022-10-18T08:44:07.191Z,52.79
2022-10-18T08:46:36.517Z,53.18
2022-10-18T08:49:04.504Z,54.14
2022-10-18T08:51:38.048Z,52.40
2022-10-18T08:54:17.110Z,51.17
2022-10-18T08:56:47.820Z,51.58
2022-10-18T08:59:15.590Z,51.90
2022-10-18T09:02:11.468Z,50.83
2022-10-18T09:04:56.608Z,51.05
2022-10-18T09:07:59.370Z,49.45
2022-10-18T09:13:55.413Z,47.65
2022-10-18T09:17:00.277Z,47.42
2022-10-18T09:19:42.459Z,46.91
2022-10-18T09:22:15.237Z,46.68
2022-10-18T09:25:16.329Z,47.14
2022-10-18T09:28:19.087Z,46.50
2022-10-18T09:31:08.071Z,43.17
2022-10-18T09:33:54.399Z,42.71
2022-10-18T09:36:30.555Z,40.59
2022-10-18T09:39:01.697Z,40.96
2022-10-18T09:41:52.521Z,39.99
2022-10-18T09:44:40.054Z,40.11
2022-10-18T09:47:16.836Z,38.45
2022-10-18T09:50:00.316Z,39.82
2022-10-18T09:52:34.433Z,39.68
2022-10-18T09:55:18.985Z,38.31
2022-10-18T09:57:50.506Z,38.02
2022-10-18T10:00:26.605Z,38.14
2022-10-18T10:02:54.483Z,38.84
2022-10-18T10:05:21.976Z,37.99
2022-10-18T10:07:49.395Z,38.72
2022-10-18T10:10:21.684Z,38.69
2022-10-18T10:13:04.165Z,38.24
2022-10-18T10:15:36.956Z,38.79
2022-10-18T10:18:21.341Z,37.33
2022-10-18T10:20:52.597Z,36.54
2022-10-18T10:23:45.085Z,37.45
2022-10-18T10:26:25.737Z,37.03
2022-10-18T10:28:53.148Z,37.64
2022-10-18T10:31:27.893Z,36.30
2022-10-18T10:34:06.718Z,36.38
2022-10-18T10:36:35.183Z,35.81
2022-10-18T10:39:22.450Z,36.25
2022-10-18T10:41:53.732Z,35.37
2022-10-18T10:44:23.498Z,35.53
2022-10-18T10:46:51.888Z,35.32
2022-10-18T10:52:27.035Z,34.20
2022-10-18T10:55:05.857Z,33.92
2022-10-18T10:57:38.896Z,33.97
2022-10-18T11:00:06.629Z,34.07
2022-10-18T11:02:36.173Z,33.65
2022-10-18T11:05:23.944Z,33.27
2022-10-18T11:07:53.560Z,33.45
2022-10-18T11:10:24.714Z,33.44
2022-10-18T11:13:03.161Z,32.95
2022-10-18T11:15:45.304Z,32.88
2022-10-18T11:18:30.333Z,31.83
2022-10-18T11:21:08.192Z,34.63
2022-10-18T11:23:38.102Z,33.82
2022-10-18T11:26:11.710Z,32.79
2022-10-18T11:28:47.917Z,32.26
2022-10-18T11:31:51.173Z,31.96
2022-10-18T11:34:21.384Z,30.36
2022-10-18T11:37:33.397Z,32.22
2022-10-18T11:40:03.473Z,32.03
2022-10-18T11:42:59.519Z,31.73
2022-10-18T11:45:38.728Z,31.10
2022-10-18T11:48:18.281Z,30.76
2022-10-18T11:50:54.133Z,30.24
2022-10-18T11:53:26.792Z,30.42
2022-10-18T11:56:14.808Z,30.51
2022-10-18T11:59:11.216Z,30.03
2022-10-18T12:01:43.955Z,30.16
2022-10-18T12:04:20.680Z,31.00
2022-10-18T12:06:51.076Z,30.95
2022-10-18T12:09:27.714Z,30.00
2022-10-18T12:12:02.039Z,30.54
2022-10-18T12:14:33.568Z,31.47
2022-10-18T12:19:55.804Z,29.40
2022-10-18T12:22:33.484Z,29.85
2022-10-18T12:25:01.990Z,29.65
2022-10-18T12:27:41.211Z,30.09
2022-10-18T12:30:22.305Z,30.91
2022-10-18T12:33:03.364Z,30.46
2022-10-18T12:36:00.412Z,31.82
2022-10-18T12:38:31.303Z,33.74
2022-10-18T12:40:59.426Z,31.88
2022-10-18T12:43:36.526Z,32.43
2022-10-18T12:46:13.502Z,32.46
2022-10-18T12:48:45.309Z,33.93
2022-10-18T12:51:21.219Z,32.94
2022-10-18T12:54:09.734Z,31.78
2022-10-18T12:56:44.295Z,33.23
2022-10-18T12:59:17.996Z,34.04
2022-10-18T13:01:51.602Z,34.03
2022-10-18T13:04:28.031Z,32.71
2022-10-18T13:06:59.469Z,33.43
2022-10-18T13:09:29.372Z,33.02
2022-10-18T13:12:10.283Z,33.08
2022-10-18T13:15:26.289Z,32.63
2022-10-18T13:18:04.747Z,33.66
2022-10-18T13:20:36.769Z,33.05
2022-10-18T13:23:34.040Z,32.64
2022-10-18T13:26:23.335Z,33.73
2022-10-18T13:28:53.362Z,34.21
2022-10-18T13:31:29.529Z,33.59
2022-10-18T13:34:18.659Z,32.79
2022-10-18T13:36:59.463Z,33.48
2022-10-18T13:39:27.655Z,33.76
2022-10-18T13:41:58.130Z,34.23
2022-10-18T13:44:32.579Z,33.09
2022-10-18T13:47:00.142Z,32.97
2022-10-18T13:49:39.557Z,32.13
2022-10-18T13:52:25.691Z,32.50
2022-10-18T13:55:21.137Z,31.58
2022-10-18T13:57:57.821Z,31.96
2022-10-18T14:00:58.452Z,31.85
2022-10-18T14:03:57.586Z,31.84
2022-10-18T14:06:28.632Z,31.59
2022-10-18T14:09:06.249Z,32.45
2022-10-18T14:11:46.084Z,32.53
2022-10-18T14:14:36.702Z,32.12
2022-10-18T14:17:18.051Z,32.27
2022-10-18T14:20:14.415Z,32.72
2022-10-18T14:22:53.690Z,32.20
2022-10-18T14:25:27.150Z,31.99
2022-10-18T14:28:14.661Z,33.16
2022-10-18T14:31:03.355Z,32.27
2022-10-18T14:33:34.774Z,32.02
2022-10-18T14:36:12.928Z,32.54
2022-10-18T14:39:00.830Z,33.49
2022-10-18T14:41:35.018Z,33.83
2022-10-18T14:44:14.656Z,33.06
2022-10-18T14:46:51.088Z,33.68
2022-10-18T14:49:20.074Z,33.84
2022-10-18T14:51:51.418Z,33.70
2022-10-18T14:54:24.082Z,33.37
2022-10-18T14:56:54.060Z,33.73
2022-10-18T14:59:26.844Z,33.45
2022-10-18T15:02:02.559Z,33.42
2022-10-18T15:04:33.076Z,33.68
2022-10-18T15:07:03.783Z,33.01
2022-10-18T15:09:34.585Z,33.68
2022-10-18T15:12:06.682Z,34.55
2022-10-18T15:14:34.970Z,34.05
2022-10-18T15:17:14.365Z,33.94
2022-10-18T15:19:54.537Z,34.89
2022-10-18T15:22:31.744Z,34.98
2022-10-18T15:25:06.074Z,35.32
2022-10-18T15:27:36.881Z,37.30
2022-10-18T15:30:37.341Z,36.94
2022-10-18T15:33:10.693Z,38.02
2022-10-18T15:35:39.198Z,38.70
2022-10-18T15:38:15.789Z,38.82
2022-10-18T15:40:43.790Z,40.76
2022-10-18T15:43:23.573Z,41.97
2022-10-18T15:45:53.271Z,42.77
2022-10-18T15:48:24.406Z,44.57
2022-10-18T15:51:06.223Z,45.38
2022-10-18T15:53:35.609Z,46.95
2022-10-18T15:56:10.934Z,47.96
2022-10-18T15:58:46.395Z,47.38
2022-10-18T16:01:22.060Z,49.09
2022-10-18T16:03:50.717Z,50.03
2022-10-18T16:06:18.594Z,50.49
2022-10-18T16:08:51.119Z,51.21
2022-10-18T16:11:24.189Z,51.51
2022-10-18T16:13:55.138Z,51.93
2022-10-18T16:16:27.472Z,52.59
2022-10-18T16:18:56.095Z,50.71
2022-10-18T16:21:29.974Z,50.10
2022-10-18T16:23:57.878Z,51.44
2022-10-18T16:26:26.185Z,53.74
2022-10-18T16:28:54.431Z,51.37
2022-10-18T16:31:24.347Z,52.38
2022-10-18T16:33:52.582Z,52.10
2022-10-18T16:36:22.594Z,54.01
2022-10-18T16:38:50.590Z,56.81
2022-10-18T16:41:18.446Z,57.85
2022-10-18T16:43:47.020Z,58.17
2022-10-18T16:46:17.572Z,59.41
2022-10-18T16:48:45.538Z,58.63
2022-10-18T16:51:13.014Z,58.49
2022-10-18T16:53:41.373Z,57.63
2022-10-18T16:56:30.579Z,59.37
2022-10-18T16:58:58.990Z,60.74
2022-10-18T17:01:26.797Z,63.43
2022-10-18T17:03:55.234Z,64.42
2022-10-18T17:06:29.748Z,64.22
2022-10-18T17:08:57.807Z,65.77
2022-10-18T17:11:27.517Z,63.61
2022-10-18T17:13:55.890Z,61.59
2022-10-18T17:16:32.396Z,60.41
2022-10-18T17:19:03.091Z,62.61
2022-10-18T17:21:31.968Z,62.78
2022-10-18T17:24:01.642Z,64.49
2022-10-18T17:26:30.168Z,64.34
2022-10-18T17:29:00.965Z,64.47
2022-10-18T17:31:30.335Z,65.78
2022-10-18T17:34:00.236Z,65.82
2022-10-18T17:36:28.140Z,68.02
2022-10-18T17:38:56.621Z,70.01
2022-10-18T17:41:24.270Z,70.95
2022-10-18T17:43:52.061Z,70.82
2022-10-18T17:46:20.488Z,68.86
2022-10-18T17:48:47.996Z,67.99
2022-10-18T17:51:17.401Z,67.09
2022-10-18T17:53:45.416Z,66.04
2022-10-18T17:56:13.722Z,64.55
2022-10-18T17:58:43.605Z,65.40
2022-10-18T18:01:17.652Z,66.57
2022-10-18T18:03:45.432Z,68.72
2022-10-18T18:06:31.120Z,69.50
2022-10-18T18:09:05.379Z,69.86
2022-10-18T18:11:33.972Z,70.66
2022-10-18T18:14:02.264Z,70.62
2022-10-18T18:16:30.599Z,70.26
2022-10-18T18:18:59.191Z,69.77
2022-10-18T18:21:27.828Z,70.00
2022-10-18T18:23:56.125Z,70.16
2022-10-18T18:26:24.110Z,70.54
2022-10-18T18:28:52.520Z,70.65
2022-10-18T18:31:24.266Z,68.20
2022-10-18T18:33:53.811Z,67.65
2022-10-18T18:36:22.549Z,67.58
2022-10-18T18:38:55.445Z,69.59
2022-10-18T18:41:27.060Z,69.21
2022-10-18T18:43:58.049Z,69.76
2022-10-18T18:46:28.548Z,70.82
2022-10-18T18:49:02.181Z,70.52
2022-10-18T18:51:30.404Z,71.26
2022-10-18T18:53:58.335Z,72.44
2022-10-18T18:56:27.601Z,71.92
2022-10-18T18:58:57.116Z,69.98
2022-10-18T19:01:27.269Z,68.75
2022-10-18T19:03:56.530Z,69.17
2022-10-18T19:06:39.118Z,69.35
2022-10-18T19:09:22.849Z,69.67
2022-10-18T19:11:56.348Z,69.72
2022-10-18T19:14:25.949Z,70.90
2022-10-18T19:16:56.826Z,70.43
2022-10-18T19:19:26.789Z,70.17
2022-10-18T19:21:56.563Z,70.74
2022-10-18T19:24:25.414Z,71.76
2022-10-18T19:26:58.801Z,71.91
2022-10-18T19:29:32.014Z,72.14
2022-10-18T19:32:03.111Z,71.88
2022-10-18T19:34:32.929Z,71.76
2022-10-18T19:37:01.436Z,71.70
2022-10-18T19:39:34.359Z,72.22
2022-10-18T19:42:06.572Z,72.52
2022-10-18T19:44:37.541Z,71.17
2022-10-18T19:47:06.742Z,72.79
2022-10-18T19:49:34.861Z,72.95
2022-10-18T19:52:02.683Z,72.40
2022-10-18T19:54:30.785Z,74.49
2022-10-18T19:56:58.465Z,74.21
2022-10-18T19:59:26.421Z,74.07
2022-10-18T20:01:54.580Z,73.98
2022-10-18T20:04:22.512Z,73.79
2022-10-18T20:06:50.317Z,73.26
2022-10-18T20:09:20.489Z,73.49
2022-10-18T20:11:48.867Z,74.31
2022-10-18T20:14:16.297Z,73.61
2022-10-18T20:16:43.661Z,73.56
2022-10-18T20:19:11.727Z,73.70
2022-10-18T20:21:39.969Z,73.64
2022-10-18T20:24:08.410Z,73.84
2022-10-18T20:26:36.125Z,74.46
2022-10-18T20:29:04.424Z,74.23
2022-10-18T20:31:35.606Z,74.30
2022-10-18T20:34:05.273Z,74.88
2022-10-18T20:36:33.233Z,74.43
2022-10-18T20:39:00.870Z,74.22
2022-10-18T20:41:30.740Z,73.67
2022-10-18T20:44:03.947Z,75.06
2022-10-18T20:46:33.519Z,75.42
2022-10-18T20:49:01.247Z,75.44
2022-10-18T20:51:28.866Z,74.73
2022-10-18T20:53:56.519Z,73.72
2022-10-18T20:56:26.705Z,74.45
2022-10-18T20:58:56.340Z,76.45
2022-10-18T21:01:29.147Z,75.44
2022-10-18T21:03:58.097Z,74.54
2022-10-18T21:06:30.910Z,73.61
2022-10-18T21:09:00.560Z,73.13
2022-10-18T21:11:29.982Z,73.25
2022-10-18T21:14:00.141Z,73.30
2022-10-18T21:16:28.465Z,72.86
2022-10-18T21:18:55.835Z,72.92
2022-10-18T21:21:24.779Z,74.27
2022-10-18T21:23:52.742Z,75.20
2022-10-18T21:26:27.114Z,74.94
2022-10-18T21:28:58.592Z,74.14
2022-10-18T21:31:28.194Z,73.70
2022-10-18T21:33:57.540Z,74.43
2022-10-18T21:36:25.914Z,73.87
2022-10-18T21:38:53.798Z,74.81
2022-10-18T21:41:21.978Z,74.88
2022-10-18T21:43:51.902Z,74.18
2022-10-18T21:46:21.071Z,74.21
2022-10-18T21:48:53.439Z,73.53
2022-10-18T21:51:22.448Z,72.82
2022-10-18T21:53:52.574Z,73.24
2022-10-18T21:56:28.105Z,73.69
2022-10-18T21:58:56.281Z,73.24
2022-10-18T22:01:25.954Z,73.24
2022-10-18T22:03:55.074Z,73.90
2022-10-18T22:06:22.969Z,74.61
2022-10-18T22:08:53.099Z,74.05
2022-10-18T22:11:32.516Z,74.38
2022-10-18T22:14:00.399Z,76.12
2022-10-18T22:16:28.461Z,75.61
2022-10-18T22:19:00.780Z,76.74
2022-10-18T22:21:30.078Z,76.66
2022-10-18T22:23:58.060Z,76.26
2022-10-18T22:26:30.540Z,74.78
2022-10-18T22:29:01.132Z,73.59
2022-10-18T22:31:31.602Z,72.51
2022-10-18T22:34:03.112Z,73.31
2022-10-18T22:36:32.754Z,72.90
2022-10-18T22:39:00.937Z,72.99
2022-10-18T22:41:28.444Z,73.09
2022-10-18T22:43:58.409Z,72.80
2022-10-18T22:46:28.729Z,71.84
2022-10-18T22:48:56.075Z,71.13
2022-10-18T22:51:23.591Z,72.35
2022-10-18T22:53:51.248Z,73.08
2022-10-18T22:56:20.877Z,72.85
2022-10-18T22:58:48.329Z,72.67
2022-10-18T23:01:23.209Z,72.12
2022-10-18T23:03:55.263Z,71.94
2022-10-18T23:06:30.361Z,71.79
2022-10-18T23:08:58.235Z,73.54
2022-10-18T23:11:26.896Z,73.37
2022-10-18T23:13:54.388Z,73.66
2022-10-18T23:16:22.086Z,74.48
2022-10-18T23:18:51.668Z,73.73
2022-10-18T23:21:19.627Z,74.22
2022-10-18T23:23:47.342Z,74.56
2022-10-18T23:26:17.578Z,75.62
2022-10-18T23:28:47.036Z,75.47
2022-10-18T23:31:23.647Z,75.07
2022-10-18T23:33:53.314Z,75.11
2022-10-18T23:36:21.674Z,73.72
2022-10-18T23:38:49.302Z,73.80
2022-10-18T23:41:17.237Z,72.60
2022-10-18T23:43:45.166Z,71.44
2022-10-18T23:46:13.466Z,71.35
2022-10-18T23:48:40.838Z,71.53
2022-10-18T23:51:08.526Z,71.86
2022-10-18T23:53:36.542Z,72.22
2022-10-18T23:56:08.917Z,73.11
2022-10-18T23:58:37.342Z,73.91
